Time;durP1;ratioP1;P1;durP2;ratioP2;P2;SDS_P1;SDS_P2;PMS_P1;PMS_P2;Temp;Humidity;BMP_temperature;BMP_pressure;BME280_temperature;BME280_humidity;BME280_pressure;Samples;Min_cycle;Max_cycle;Signal;HPM_P1;HPM_P2
2023/09/06 00:00:43;;;;;;;;;;;;;;;20.99;63.64;99868.91;5092255;28;19919;-77
2023/09/06 00:03:09;;;;;;;;;;;;;;;20.94;63.93;99867.75;5091991;28;19924;-77
2023/09/06 00:05:34;;;;;;;;;;;;;;;20.97;63.57;99869.16;5092277;28;19919;-77
2023/09/06 00:08:02;;;;;;;;;;;;;;;21.00;63.86;99874.06;5074049;28;20301;-77
2023/09/06 00:10:27;;;;;;;;;;;;;;;21.00;63.72;99866.00;5092250;28;19923;-77
2023/09/06 00:12:53;;;;;;;;;;;;;;;20.98;63.57;99859.22;5091872;28;19916;-76
2023/09/06 00:15:18;;;;;;;;;;;;;;;21.01;63.79;99866.81;5092006;28;19909;-78
2023/09/06 00:17:43;;;;;;;;;;;;;;;21.00;63.79;99857.13;5091895;28;19912;-76
2023/09/06 00:20:27;;;;;;;;;;;;;;;21.01;63.61;99869.50;5091906;28;19912;-78
2023/09/06 00:22:55;;;;;;;;;;;;;;;20.96;63.82;99858.66;5091633;28;19923;-77
2023/09/06 00:25:20;;;;;;;;;;;;;;;20.94;63.88;99862.41;5091711;28;19912;-76
2023/09/06 00:27:46;;;;;;;;;;;;;;;20.87;64.30;99855.53;5091878;28;19981;-77
2023/09/06 00:30:11;;;;;;;;;;;;;;;20.87;64.15;99860.91;5091724;28;20359;-77
2023/09/06 00:32:36;;;;;;;;;;;;;;;20.91;64.01;99865.56;5091910;28;19919;-78
2023/09/06 00:35:01;;;;;;;;;;;;;;;20.92;64.41;99867.19;5091777;28;19919;-76
2023/09/06 00:37:34;;;;;;;;;;;;;;;20.85;64.71;99868.38;5091797;28;20401;-77
2023/09/06 00:40:00;;;;;;;;;;;;;;;20.86;64.83;99867.31;5091714;28;19912;-77
2023/09/06 00:42:30;;;;;;;;;;;;;;;20.89;64.20;99854.25;5091760;28;19927;-77
2023/09/06 00:44:55;;;;;;;;;;;;;;;20.93;64.39;99866.13;5092231;28;19912;-76
2023/09/06 00:47:21;;;;;;;;;;;;;;;20.98;64.08;99864.59;5091915;28;19912;-76
2023/09/06 00:49:46;;;;;;;;;;;;;;;21.00;63.97;99859.81;5091676;28;19913;-76
2023/09/06 00:52:12;;;;;;;;;;;;;;;21.02;64.05;99861.22;5091646;28;19961;-76
2023/09/06 00:54:39;;;;;;;;;;;;;;;21.02;63.94;99860.38;5091653;28;20304;-76
2023/09/06 00:57:05;;;;;;;;;;;;;;;21.01;64.04;99851.53;5091466;28;19912;-76
2023/09/06 00:59:31;;;;;;;;;;;;;;;21.04;63.43;99850.22;5091557;28;20305;-77
2023/09/06 01:01:56;;;;;;;;;;;;;;;21.02;63.58;99839.72;5093838;28;20077;-77
2023/09/06 01:04:22;;;;;;;;;;;;;;;20.94;63.47;99848.97;5077239;28;19999;-76
2023/09/06 01:06:55;;;;;;;;;;;;;;;20.88;64.53;99841.06;5095572;28;19920;-76
2023/09/06 01:09:21;;;;;;;;;;;;;;;20.88;63.89;99838.38;5095551;28;19912;-76
2023/09/06 01:11:46;;;;;;;;;;;;;;;20.91;64.32;99845.94;5095188;28;19935;-76
2023/09/06 01:14:11;;;;;;;;;;;;;;;20.92;64.57;99839.53;5076805;28;19912;-76
2023/09/06 01:16:41;;;;;;;;;;;;;;;20.92;64.27;99839.53;5095060;28;20092;-76
2023/09/06 01:19:09;;;;;;;;;;;;;;;20.89;64.18;99846.19;5095122;28;19991;-76
2023/09/06 01:21:50;;;;;;;;;;;;;;;20.89;64.59;99842.69;5094899;28;20404;-76
2023/09/06 01:24:16;;;;;;;;;;;;;;;20.86;64.50;99841.28;5094787;28;19916;-76
2023/09/06 01:26:42;;;;;;;;;;;;;;;20.87;65.06;99850.97;5095066;28;19916;-76
2023/09/06 01:29:07;;;;;;;;;;;;;;;20.84;64.74;99856.81;5094950;28;19912;-77
2023/09/06 01:31:32;;;;;;;;;;;;;;;20.86;64.90;99853.91;5094697;28;19986;-76
2023/09/06 01:33:58;;;;;;;;;;;;;;;20.86;64.52;99857.41;5094847;28;19965;-76
2023/09/06 01:36:23;;;;;;;;;;;;;;;20.88;64.85;99857.97;5095607;28;19965;-76
2023/09/06 01:38:51;;;;;;;;;;;;;;;20.87;65.58;99847.47;5117360;28;20416;-76
2023/09/06 01:41:16;;;;;;;;;;;;;;;20.86;64.81;99852.03;5108704;28;20452;-76
2023/09/06 01:43:42;;;;;;;;;;;;;;;20.85;65.40;99849.59;5094498;28;19955;-76
2023/09/06 01:46:07;;;;;;;;;;;;;;;20.85;65.19;99844.22;5076782;28;19912;-76
2023/09/06 01:48:32;;;;;;;;;;;;;;;20.86;65.03;99846.66;5094429;28;19912;-76
2023/09/06 01:50:58;;;;;;;;;;;;;;;20.85;65.06;99850.41;5094406;28;19958;-76
2023/09/06 01:53:23;;;;;;;;;;;;;;;20.83;64.97;99844.47;5094297;28;19912;-76
2023/09/06 01:55:49;;;;;;;;;;;;;;;20.85;65.07;99845.03;5094179;28;19908;-76
2023/09/06 01:58:14;;;;;;;;;;;;;;;20.87;65.40;99847.47;5094318;28;20410;-76
2023/09/06 02:00:39;;;;;;;;;;;;;;;20.89;65.19;99840.00;5094243;28;19918;-77
2023/09/06 02:03:11;;;;;;;;;;;;;;;20.83;65.60;99846.31;5076111;28;20393;-76
2023/09/06 02:05:36;;;;;;;;;;;;;;;20.82;64.91;99842.81;5094110;28;20003;-76
2023/09/06 02:08:03;;;;;;;;;;;;;;;20.77;65.91;99840.00;5094068;28;20381;-76
2023/09/06 02:10:29;;;;;;;;;;;;;;;20.78;65.65;99843.50;5094074;28;19912;-77
2023/09/06 02:12:54;;;;;;;;;;;;;;;20.78;65.72;99843.50;5093628;28;20312;-76
2023/09/06 02:15:19;;;;;;;;;;;;;;;20.78;65.56;99843.50;5093893;28;19916;-77
2023/09/06 02:17:44;;;;;;;;;;;;;;;20.76;66.20;99843.75;5075677;28;20469;-76
2023/09/06 02:20:20;;;;;;;;;;;;;;;20.78;65.80;99844.31;5093730;28;19961;-77
2023/09/06 02:22:51;;;;;;;;;;;;;;;20.76;65.24;99851.78;5093966;28;19939;-77
2023/09/06 02:25:17;;;;;;;;;;;;;;;20.73;65.38;99846.09;5093855;28;20407;-77
2023/09/06 02:27:42;;;;;;;;;;;;;;;20.71;65.76;99846.31;5093681;28;19991;-76
2023/09/06 02:30:08;;;;;;;;;;;;;;;20.72;65.11;99845.28;5093604;28;20400;-77
2023/09/06 02:32:34;;;;;;;;;;;;;;;20.75;65.48;99839.44;5093822;28;19965;-76
2023/09/06 02:34:59;;;;;;;;;;;;;;;20.74;66.39;99845.84;5093652;28;19912;-77
2023/09/06 02:37:24;;;;;;;;;;;;;;;20.73;66.01;99844.22;5094006;28;19912;-76
2023/09/06 02:39:53;;;;;;;;;;;;;;;20.74;65.90;99840.47;5093725;28;20355;-77
2023/09/06 02:42:21;;;;;;;;;;;;;;;20.75;65.95;99839.44;5075486;28;19969;-76
2023/09/06 02:44:47;;;;;;;;;;;;;;;20.79;65.58;99847.81;5075532;28;19912;-76
2023/09/06 02:47:15;;;;;;;;;;;;;;;20.82;65.84;99842.81;5093520;28;19969;-76
2023/09/06 02:49:43;;;;;;;;;;;;;;;20.86;65.65;99838.63;5093303;28;19916;-77
2023/09/06 02:52:20;;;;;;;;;;;;;;;20.90;65.32;99841.63;5093591;28;19963;-77
2023/09/06 02:54:46;;;;;;;;;;;;;;;20.91;65.50;99848.63;5093528;28;19943;-76
2023/09/06 02:57:14;;;;;;;;;;;;;;;20.92;64.88;99842.22;5093308;28;19912;-76
2023/09/06 02:59:39;;;;;;;;;;;;;;;20.93;65.20;99839.28;5093112;28;19912;-77
2023/09/06 03:02:05;;;;;;;;;;;;;;;20.95;64.94;99833.69;5092913;28;20011;-76
2023/09/06 03:04:33;;;;;;;;;;;;;;;20.97;64.76;99836.94;5093158;28;19920;-77
2023/09/06 03:07:01;;;;;;;;;;;;;;;21.00;64.73;99851.75;5075007;28;19923;-77
2023/09/06 03:09:28;;;;;;;;;;;;;;;21.01;64.56;99850.69;5092889;28;19919;-77
2023/09/06 03:11:54;;;;;;;;;;;;;;;21.00;64.28;99855.25;5092839;28;20364;-76
2023/09/06 03:14:20;;;;;;;;;;;;;;;20.99;64.13;99850.94;5092729;28;19995;-77
2023/09/06 03:16:47;;;;;;;;;;;;;;;20.99;63.91;99855.50;5092691;28;20013;-76
2023/09/06 03:19:13;;;;;;;;;;;;;;;21.01;64.02;99862.25;5092527;28;19912;-76
2023/09/06 03:21:39;;;;;;;;;;;;;;;21.01;64.20;99866.81;5092707;28;19919;-76
2023/09/06 03:24:11;;;;;;;;;;;;;;;21.02;64.00;99871.13;5091778;28;20385;-76
2023/09/06 03:26:37;;;;;;;;;;;;;;;21.04;64.16;99869.84;5092694;28;19918;-77
2023/09/06 03:29:10;;;;;;;;;;;;;;;21.07;64.15;99877.41;5092633;28;19998;-76
2023/09/06 03:31:42;;;;;;;;;;;;;;;21.09;63.94;99871.81;5092506;28;19991;-76
2023/09/06 03:34:07;;;;;;;;;;;;;;;21.07;64.03;99874.72;5092618;28;19908;-77
2023/09/06 03:36:35;;;;;;;;;;;;;;;21.04;63.86;99877.06;5092477;28;19961;-76
2023/09/06 03:39:00;;;;;;;;;;;;;;;21.02;64.01;99882.69;5092561;28;20400;-77
2023/09/06 03:41:26;;;;;;;;;;;;;;;21.02;64.07;99880.00;5092358;28;19938;-76
2023/09/06 03:43:52;;;;;;;;;;;;;;;21.03;64.24;99880.81;5091914;28;19973;-76
2023/09/06 03:46:20;;;;;;;;;;;;;;;21.05;63.86;99884.88;5073962;28;19959;-76
2023/09/06 03:48:46;;;;;;;;;;;;;;;21.09;63.75;99890.59;5092294;28;20419;-76
2023/09/06 03:51:13;;;;;;;;;;;;;;;21.09;64.03;99893.28;5092173;28;19958;-77
2023/09/06 03:53:38;;;;;;;;;;;;;;;21.04;64.21;99887.81;5073827;28;19923;-76
2023/09/06 03:56:05;;;;;;;;;;;;;;;21.03;64.32;99895.06;5092103;28;19912;-76
2023/09/06 03:58:31;;;;;;;;;;;;;;;21.04;64.21;99891.31;5092261;28;19935;-78
2023/09/06 04:00:57;;;;;;;;;;;;;;;21.07;64.36;99900.75;5073921;28;19934;-76
2023/09/06 04:03:23;;;;;;;;;;;;;;;21.09;64.31;99893.28;5091814;28;20448;-77
2023/09/06 04:05:50;;;;;;;;;;;;;;;21.08;64.20;99895.16;5091765;28;19990;-78
2023/09/06 04:08:17;;;;;;;;;;;;;;;21.11;64.51;99904.59;5091834;28;19912;-77
2023/09/06 04:10:44;;;;;;;;;;;;;;;21.14;64.02;99896.88;5091916;28;20382;-78
2023/09/06 04:13:10;;;;;;;;;;;;;;;21.16;64.18;99902.84;5091808;28;20385;-77
2023/09/06 04:15:36;;;;;;;;;;;;;;;21.18;64.26;99899.91;5091826;28;19916;-77
2023/09/06 04:18:06;;;;;;;;;;;;;;;21.17;64.08;99900.97;5091684;28;19969;-77
2023/09/06 04:20:44;;;;;;;;;;;;;;;21.13;64.48;99903.31;5091697;28;19970;-76
2023/09/06 04:23:13;;;;;;;;;;;;;;;21.12;64.56;99907.03;5091756;28;19916;-76
2023/09/06 04:25:43;;;;;;;;;;;;;;;21.10;64.46;99894.91;5073755;28;19912;-77
2023/09/06 04:28:09;;;;;;;;;;;;;;;21.10;64.34;99905.66;5092044;28;20399;-76
2023/09/06 04:30:38;;;;;;;;;;;;;;;21.07;64.77;99900.75;5073907;28;19916;-76
2023/09/06 04:33:05;;;;;;;;;;;;;;;21.06;64.48;99915.25;5091813;28;19916;-76
2023/09/06 04:35:36;;;;;;;;;;;;;;;21.05;64.40;99906.38;5116135;28;19934;-76
2023/09/06 04:38:02;;;;;;;;;;;;;;;21.05;64.56;99908.25;5108826;28;19912;-76
2023/09/06 04:40:29;;;;;;;;;;;;;;;21.04;64.67;99912.78;5078091;28;20446;-76
2023/09/06 04:42:54;;;;;;;;;;;;;;;21.06;64.50;99910.69;5077969;28;19920;-77
2023/09/06 04:45:19;;;;;;;;;;;;;;;21.08;64.39;99915.81;5096064;28;19912;-76
2023/09/06 04:47:45;;;;;;;;;;;;;;;21.08;64.42;99913.94;5095939;28;19912;-76
2023/09/06 04:50:13;;;;;;;;;;;;;;;21.10;64.30;99917.22;5095729;28;19919;-76
2023/09/06 04:52:46;;;;;;;;;;;;;;;21.12;64.46;99923.16;5095640;28;19912;-77
2023/09/06 04:55:14;;;;;;;;;;;;;;;21.12;64.28;99917.78;5077229;28;19912;-76
2023/09/06 04:57:45;;;;;;;;;;;;;;;21.11;64.31;99920.72;5095280;28;20014;-77
2023/09/06 05:00:18;;;;;;;;;;;;;;;21.10;64.53;99927.13;5095219;28;19948;-77
2023/09/06 05:02:47;;;;;;;;;;;;;;;21.07;64.36;99927.59;5095083;28;19968;-76
2023/09/06 05:05:13;;;;;;;;;;;;;;;21.06;64.90;99923.28;5095489;28;19944;-77
2023/09/06 05:07:39;;;;;;;;;;;;;;;21.05;65.04;99930.53;5077051;28;19905;-77
2023/09/06 05:10:04;;;;;;;;;;;;;;;21.05;64.42;99925.16;5095481;28;20377;-77
2023/09/06 05:12:30;;;;;;;;;;;;;;;21.08;64.40;99934.63;5095262;28;20269;-77
2023/09/06 05:14:55;;;;;;;;;;;;;;;21.11;64.44;99934.13;5095211;28;20349;-76
2023/09/06 05:17:20;;;;;;;;;;;;;;;21.13;64.29;99937.41;5094997;28;19913;-77
2023/09/06 05:19:50;;;;;;;;;;;;;;;21.14;63.73;99933.66;5076621;28;20407;-76
2023/09/06 05:22:15;;;;;;;;;;;;;;;21.12;64.52;99938.44;5094852;28;20514;-76
2023/09/06 05:24:40;;;;;;;;;;;;;;;21.14;64.40;99936.34;5095013;28;19995;-76
2023/09/06 05:27:05;;;;;;;;;;;;;;;21.14;64.97;99939.84;5095054;28;20312;-76
2023/09/06 05:29:32;;;;;;;;;;;;;;;21.16;64.39;99948.47;5076718;28;19912;-77
2023/09/06 05:31:57;;;;;;;;;;;;;;;21.17;64.97;99949.28;5094858;28;19952;-77
2023/09/06 05:34:23;;;;;;;;;;;;;;;21.19;64.57;99952.56;5094897;28;20009;-76
2023/09/06 05:36:48;;;;;;;;;;;;;;;21.23;64.59;99951.06;5076647;28;19949;-77
2023/09/06 05:39:13;;;;;;;;;;;;;;;21.27;64.18;99962.16;5094932;28;19920;-77
2023/09/06 05:41:39;;;;;;;;;;;;;;;21.31;64.36;99957.94;5076525;28;19912;-76
2023/09/06 05:44:04;;;;;;;;;;;;;;;21.32;64.33;99960.38;5094462;28;19967;-77
2023/09/06 05:46:29;;;;;;;;;;;;;;;21.34;64.62;99963.66;5093962;28;20012;-77
2023/09/06 05:48:55;;;;;;;;;;;;;;;21.35;64.05;99962.59;5094490;28;19912;-76
2023/09/06 05:51:20;;;;;;;;;;;;;;;21.40;63.92;99964.56;5094477;28;20289;-77
2023/09/06 05:53:45;;;;;;;;;;;;;;;21.42;63.92;99973.19;5093957;28;20419;-76
2023/09/06 05:56:11;;;;;;;;;;;;;;;21.45;63.68;99978.91;5094018;28;19908;-77
2023/09/06 05:58:38;;;;;;;;;;;;;;;21.50;63.74;99978.19;5094145;28;19912;-76
2023/09/06 06:01:03;;;;;;;;;;;;;;;21.53;63.66;99981.22;5094007;28;19935;-77
2023/09/06 06:03:29;;;;;;;;;;;;;;;21.56;63.63;99988.84;5093859;28;19916;-77
2023/09/06 06:05:55;;;;;;;;;;;;;;;21.60;63.40;99988.34;5075834;28;20436;-76
2023/09/06 06:08:20;;;;;;;;;;;;;;;21.62;63.27;99994.31;5075929;28;19913;-77
2023/09/06 06:10:45;;;;;;;;;;;;;;;21.65;63.04;99993.81;5076169;28;19912;-77
2023/09/06 06:13:12;;;;;;;;;;;;;;;21.69;63.10;100001.16;5094224;28;19919;-77
2023/09/06 06:15:37;;;;;;;;;;;;;;;21.75;63.13;99996.72;5075986;28;19912;-77
2023/09/06 06:18:02;;;;;;;;;;;;;;;21.74;63.05;100001.28;5094209;28;19916;-76
2023/09/06 06:20:28;;;;;;;;;;;;;;;21.77;63.13;100000.78;5094447;28;19923;-77
2023/09/06 06:22:53;;;;;;;;;;;;;;;21.78;62.81;100005.13;5093826;28;19968;-75
2023/09/06 06:25:18;;;;;;;;;;;;;;;21.81;62.18;100003.81;5093839;28;19912;-78
2023/09/06 06:27:43;;;;;;;;;;;;;;;21.81;62.96;100004.63;5075497;28;20355;-77
2023/09/06 06:30:11;;;;;;;;;;;;;;;21.82;62.45;100006.25;5093541;28;20060;-78
2023/09/06 06:32:55;;;;;;;;;;;;;;;21.84;62.29;100006.84;5093529;28;19912;-77
2023/09/06 06:35:20;;;;;;;;;;;;;;;21.87;62.60;100011.72;5075640;28;19935;-78
2023/09/06 06:37:48;;;;;;;;;;;;;;;21.88;61.65;100010.69;5093760;28;20400;-75
2023/09/06 06:40:14;;;;;;;;;;;;;;;21.92;61.33;100015.56;5094028;28;19962;-76
2023/09/06 06:42:39;;;;;;;;;;;;;;;21.95;61.21;100017.78;5093411;28;19956;-76
2023/09/06 06:45:04;;;;;;;;;;;;;;;21.99;61.45;100017.06;5093426;28;19919;-77
2023/09/06 06:47:30;;;;;;;;;;;;;;;22.01;61.16;100025.69;5093438;28;19920;-77
2023/09/06 06:49:55;;;;;;;;;;;;;;;22.07;61.16;100022.06;5093295;28;19919;-77
2023/09/06 06:52:20;;;;;;;;;;;;;;;22.11;60.88;100025.91;5093141;28;19955;-78
2023/09/06 06:54:49;;;;;;;;;;;;;;;22.13;60.47;100025.66;5093099;28;19912;-78
2023/09/06 06:57:14;;;;;;;;;;;;;;;22.15;60.18;100032.44;5074942;28;19912;-77
2023/09/06 06:59:39;;;;;;;;;;;;;;;22.17;60.04;100034.88;5093058;28;20428;-78
2023/09/06 07:02:04;;;;;;;;;;;;;;;22.16;59.82;100022.50;5092898;28;20393;-76
2023/09/06 07:04:30;;;;;;;;;;;;;;;22.22;60.11;100029.59;5093039;28;19916;-78
2023/09/06 07:06:55;;;;;;;;;;;;;;;22.28;59.83;100025.13;5092867;28;19973;-76
2023/09/06 07:09:20;;;;;;;;;;;;;;;22.23;59.57;100025.03;5092831;28;19920;-78
2023/09/06 07:11:46;;;;;;;;;;;;;;;22.25;59.84;100025.59;5092850;28;19912;-77
2023/09/06 07:14:11;;;;;;;;;;;;;;;22.27;59.77;100026.19;5092729;28;19991;-77
2023/09/06 07:16:37;;;;;;;;;;;;;;;22.32;59.96;100027.13;5074555;28;19943;-77
2023/09/06 07:19:02;;;;;;;;;;;;;;;22.36;59.73;100028.25;5092715;28;20067;-76
2023/09/06 07:21:28;;;;;;;;;;;;;;;22.38;59.71;100033.41;5092659;28;20006;-76
2023/09/06 07:23:53;;;;;;;;;;;;;;;22.41;59.72;100033.72;5074197;28;19973;-77
2023/09/06 07:26:18;;;;;;;;;;;;;;;22.44;59.60;100029.72;5092589;28;19916;-77
2023/09/06 07:28:45;;;;;;;;;;;;;;;22.45;59.89;100034.06;5092371;28;19992;-76
2023/09/06 07:31:10;;;;;;;;;;;;;;;22.46;59.41;100025.75;5093904;28;19916;-77
2023/09/06 07:33:36;;;;;;;;;;;;;;;22.48;59.29;100030.88;5080239;28;20459;-77
2023/09/06 07:36:02;;;;;;;;;;;;;;;22.52;59.28;100026.63;5094026;28;19912;-77
2023/09/06 07:38:27;;;;;;;;;;;;;;;22.55;59.32;100030.72;5092152;28;19912;-76
2023/09/06 07:40:59;;;;;;;;;;;;;;;22.56;59.37;100013.50;5092252;28;20010;-77
2023/09/06 07:43:26;;;;;;;;;;;;;;;22.58;59.24;100016.75;5092392;28;19924;-76
2023/09/06 07:45:52;;;;;;;;;;;;;;;22.60;58.89;100020.84;5092461;28;19912;-76
2023/09/06 07:48:17;;;;;;;;;;;;;;;22.63;59.05;100023.03;5092166;28;19920;-77
2023/09/06 07:50:43;;;;;;;;;;;;;;;22.66;58.91;100025.25;5092470;28;19919;-76
2023/09/06 07:53:08;;;;;;;;;;;;;;;22.66;58.58;100032.50;5092417;28;19912;-77
2023/09/06 07:55:34;;;;;;;;;;;;;;;22.66;58.60;100032.50;5091751;28;19920;-76
2023/09/06 07:57:59;;;;;;;;;;;;;;;22.69;58.42;100027.44;5091924;28;20355;-77
2023/09/06 08:00:25;;;;;;;;;;;;;;;22.75;58.47;100026.47;5073931;28;19912;-76
2023/09/06 08:02:51;;;;;;;;;;;;;;;22.81;58.28;100028.19;5091888;28;19920;-77
2023/09/06 08:05:17;;;;;;;;;;;;;;;22.86;58.14;100034.72;5091872;28;19919;-78
2023/09/06 08:07:42;;;;;;;;;;;;;;;22.90;58.00;100019.72;5091934;28;19912;-77
2023/09/06 08:10:09;;;;;;;;;;;;;;;22.94;57.66;100028.91;5073182;28;19912;-77
2023/09/06 08:12:34;;;;;;;;;;;;;;;23.01;57.61;100018.78;5091763;28;19912;-76
2023/09/06 08:14:59;;;;;;;;;;;;;;;23.09;57.32;100019.22;5091608;28;19919;-78
2023/09/06 08:17:25;;;;;;;;;;;;;;;23.21;57.52;100024.50;5091737;28;20369;-75
2023/09/06 08:19:50;;;;;;;;;;;;;;;23.31;56.72;100013.84;5073495;28;19912;-76
2023/09/06 08:22:15;;;;;;;;;;;;;;;23.40;56.38;100009.66;5091666;28;20404;-77
2023/09/06 08:24:40;;;;;;;;;;;;;;;23.54;55.96;100014.66;5091729;28;20012;-77
2023/09/06 08:27:06;;;;;;;;;;;;;;;23.66;56.06;100007.28;5073534;28;19912;-76
2023/09/06 08:29:31;;;;;;;;;;;;;;;23.78;55.63;100005.25;5073426;28;19919;-77
2023/09/06 08:31:56;;;;;;;;;;;;;;;24.00;54.68;100010.63;5091669;28;20404;-76
2023/09/06 08:34:22;;;;;;;;;;;;;;;24.08;53.70;100005.59;5091732;28;19965;-78
2023/09/06 08:36:48;;;;;;;;;;;;;;;24.19;53.35;100003.81;5091660;28;19948;-78
2023/09/06 08:39:13;;;;;;;;;;;;;;;24.32;54.01;100002.59;5091991;28;19919;-77
2023/09/06 08:41:39;;;;;;;;;;;;;;;24.54;53.83;100002.53;5091697;28;20442;-77
2023/09/06 08:44:09;;;;;;;;;;;;;;;24.80;52.14;100003.53;5091630;28;20007;-77
2023/09/06 08:46:38;;;;;;;;;;;;;;;24.99;52.79;100002.88;5091513;28;19920;-77
2023/09/06 08:49:04;;;;;;;;;;;;;;;25.14;53.12;99998.63;5091981;28;20388;-77
2023/09/06 08:51:35;;;;;;;;;;;;;;;25.30;52.21;100008.44;5073488;28;19937;-77
2023/09/06 08:54:01;;;;;;;;;;;;;;;25.33;52.50;100010.63;5091271;28;19991;-78
2023/09/06 08:56:26;;;;;;;;;;;;;;;25.04;51.79;99948.03;5091303;28;20016;-78
2023/09/06 08:58:52;;;;;;;;;;;;;;;25.53;51.18;100009.91;5091495;28;19920;-78
2023/09/06 09:01:17;;;;;;;;;;;;;;;25.68;51.33;100022.69;5091327;28;20007;-77
2023/09/06 09:03:43;;;;;;;;;;;;;;;25.65;51.21;100019.44;5091215;28;19977;-77
2023/09/06 09:06:09;;;;;;;;;;;;;;;25.52;51.10;100019.09;5091317;28;20381;-77
2023/09/06 09:08:34;;;;;;;;;;;;;;;25.55;51.19;100013.16;5091516;28;19912;-76
2023/09/06 09:11:08;;;;;;;;;;;;;;;25.44;51.63;100012.28;5073381;28;19912;-77
2023/09/06 09:13:34;;;;;;;;;;;;;;;25.48;52.13;100009.88;5073485;28;20012;-75
2023/09/06 09:15:59;;;;;;;;;;;;;;;25.56;51.60;100020.19;5091681;28;19985;-78
2023/09/06 09:18:28;;;;;;;;;;;;;;;25.68;51.55;100009.97;5091532;28;19912;-78
2023/09/06 09:20:55;;;;;;;;;;;;;;;25.91;51.04;100014.91;5091437;28;19916;-76
2023/09/06 09:23:20;;;;;;;;;;;;;;;26.20;50.49;100014.44;5075826;28;20007;-77
2023/09/06 09:25:47;;;;;;;;;;;;;;;26.43;49.69;100007.69;5095140;28;19955;-77
2023/09/06 09:28:13;;;;;;;;;;;;;;;26.34;49.22;100012.03;5094984;28;20384;-78
2023/09/06 09:30:39;;;;;;;;;;;;;;;26.19;49.96;100016.31;5095139;28;20373;-78
2023/09/06 09:33:05;;;;;;;;;;;;;;;26.12;49.78;100021.19;5076911;28;19977;-77
2023/09/06 09:35:31;;;;;;;;;;;;;;;26.02;49.82;100020.38;5076907;28;19915;-77
2023/09/06 09:37:56;;;;;;;;;;;;;;;25.89;50.82;100017.06;5095280;28;19919;-77
2023/09/06 09:40:22;;;;;;;;;;;;;;;25.81;50.42;100019.47;5095057;28;20328;-77
2023/09/06 09:42:57;;;;;;;;;;;;;;;25.73;51.54;100017.28;5094810;28;19920;-77
2023/09/06 09:45:24;;;;;;;;;;;;;;;25.68;52.06;100001.06;5094504;28;19912;-77
2023/09/06 09:47:50;;;;;;;;;;;;;;;25.72;51.36;100013.78;5094952;28;19997;-77
2023/09/06 09:50:16;;;;;;;;;;;;;;;25.75;51.26;100009.72;5094892;28;19912;-77
2023/09/06 09:52:44;;;;;;;;;;;;;;;25.80;50.54;100004.31;5094625;28;19912;-77
2023/09/06 09:55:10;;;;;;;;;;;;;;;26.26;49.99;100008.75;5092781;28;19916;-76
2023/09/06 09:57:36;;;;;;;;;;;;;;;26.66;49.93;99999.03;5094329;28;19981;-77
2023/09/06 10:00:03;;;;;;;;;;;;;;;27.14;49.15;100003.03;5076476;28;19912;-78
2023/09/06 10:02:30;;;;;;;;;;;;;;;27.51;48.92;100007.25;5092325;28;20393;-77
2023/09/06 10:04:57;;;;;;;;;;;;;;;27.65;47.32;99999.34;5094277;28;19973;-77
2023/09/06 10:07:24;;;;;;;;;;;;;;;27.64;47.05;99998.53;5094222;28;20448;-77
2023/09/06 10:09:50;;;;;;;;;;;;;;;27.85;46.20;100000.03;5093983;28;20404;-78
2023/09/06 10:12:16;;;;;;;;;;;;;;;27.75;47.62;100002.00;5094034;28;19970;-76
2023/09/06 10:14:42;;;;;;;;;;;;;;;27.54;47.93;99985.00;5093937;28;19912;-77
2023/09/06 10:17:07;;;;;;;;;;;;;;;27.60;47.41;99981.16;5093844;28;19912;-76
2023/09/06 10:19:33;;;;;;;;;;;;;;;27.38;48.10;99995.09;5093674;28;19912;-75
2023/09/06 10:22:00;;;;;;;;;;;;;;;27.27;47.83;99992.69;5092518;28;19916;-78
2023/09/06 10:24:30;;;;;;;;;;;;;;;27.12;48.88;99994.38;5092284;28;19916;-76
2023/09/06 10:26:57;;;;;;;;;;;;;;;26.96;48.48;99989.25;5093985;28;19916;-75
2023/09/06 10:29:23;;;;;;;;;;;;;;;26.91;48.84;99990.88;5093950;28;20362;-76
2023/09/06 10:31:51;;;;;;;;;;;;;;;26.87;49.19;99981.66;5094100;28;19920;-77
2023/09/06 10:34:16;;;;;;;;;;;;;;;26.84;48.98;99989.53;5112067;28;19916;-75
2023/09/06 10:36:55;;;;;;;;;;;;;;;26.69;49.30;99979.50;5093837;28;20416;-77
2023/09/06 10:39:22;;;;;;;;;;;;;;;26.49;49.64;99971.41;5094106;28;19918;-76
2023/09/06 10:42:06;;;;;;;;;;;;;;;26.54;49.60;99974.94;5092209;28;19912;-75
2023/09/06 10:44:51;;;;;;;;;;;;;;;26.90;48.63;99966.75;5091462;28;19920;-77
2023/09/06 10:47:26;;;;;;;;;;;;;;;27.12;48.20;99964.56;5076186;28;19921;-77
2023/09/06 10:50:30;;;;;;;;;;;;;;;27.08;48.50;99965.38;5073398;28;19948;-77
2023/09/06 10:52:58;;;;;;;;;;;;;;;27.02;48.83;99961.88;5011615;28;19953;-75
2023/09/06 10:55:25;;;;;;;;;;;;;;;27.12;47.82;99956.41;5032580;28;19994;-76
2023/09/06 10:58:02;;;;;;;;;;;;;;;27.23;48.07;99951.75;5054258;28;19952;-76
2023/09/06 11:00:30;;;;;;;;;;;;;;;27.23;48.38;99951.75;5072968;28;19919;-76
2023/09/06 11:03:08;;;;;;;;;;;;;;;27.18;48.16;99957.22;5055249;28;20336;-74
2023/09/06 11:05:35;;;;;;;;;;;;;;;27.09;47.61;99956.97;5072921;28;19919;-77
2023/09/06 11:08:01;;;;;;;;;;;;;;;26.97;47.92;99952.91;5072727;28;19912;-77
2023/09/06 11:10:26;;;;;;;;;;;;;;;26.86;47.83;99941.31;5072845;28;19916;-77
2023/09/06 11:12:55;;;;;;;;;;;;;;;26.78;48.45;99942.69;5054776;28;19959;-77
2023/09/06 11:15:21;;;;;;;;;;;;;;;26.71;47.49;99942.13;5072705;28;19944;-77
2023/09/06 11:17:46;;;;;;;;;;;;;;;26.68;48.21;99939.97;5072657;28;20385;-78
2023/09/06 11:20:12;;;;;;;;;;;;;;;26.66;48.24;99938.63;5054538;28;19986;-78
2023/09/06 11:22:46;;;;;;;;;;;;;;;26.60;48.99;99930.50;5072416;28;19912;-77
2023/09/06 11:25:18;;;;;;;;;;;;;;;26.50;48.92;99941.34;5072382;28;19920;-77
2023/09/06 11:27:45;;;;;;;;;;;;;;;26.40;49.40;99930.53;5072259;28;20404;-77
2023/09/06 11:30:15;;;;;;;;;;;;;;;26.34;49.53;99937.03;5054455;28;19913;-77
2023/09/06 11:32:41;;;;;;;;;;;;;;;26.27;49.26;99931.06;5054475;28;20367;-77
2023/09/06 11:35:08;;;;;;;;;;;;;;;26.21;49.55;99932.16;5072422;28;19916;-77
2023/09/06 11:37:37;;;;;;;;;;;;;;;26.18;49.66;99935.41;5072462;28;19919;-78
2023/09/06 11:40:10;;;;;;;;;;;;;;;26.14;49.22;99934.31;5072474;28;19917;-77
2023/09/06 11:42:36;;;;;;;;;;;;;;;26.16;49.70;99940.28;5072379;28;19912;-76
2023/09/06 11:45:05;;;;;;;;;;;;;;;26.11;48.61;99937.56;5071602;28;19912;-77
2023/09/06 11:47:32;;;;;;;;;;;;;;;26.13;47.33;99933.50;5072186;28;20290;-77
2023/09/06 11:49:59;;;;;;;;;;;;;;;26.19;47.95;99928.91;5071907;28;19909;-77
2023/09/06 11:52:24;;;;;;;;;;;;;;;26.20;47.15;99933.22;5071940;28;19936;-77
2023/09/06 11:54:50;;;;;;;;;;;;;;;26.33;47.52;99932.72;5071949;28;20385;-77
2023/09/06 11:57:17;;;;;;;;;;;;;;;26.40;47.17;99927.84;5072088;28;19951;-77
2023/09/06 11:59:43;;;;;;;;;;;;;;;26.44;46.07;99919.97;5072148;28;19952;-77
2023/09/06 12:02:10;;;;;;;;;;;;;;;26.52;47.07;99917.53;5072374;28;20325;-78
2023/09/06 12:04:38;;;;;;;;;;;;;;;26.70;47.00;99923.44;5071185;28;20517;-76
2023/09/06 12:07:07;;;;;;;;;;;;;;;27.04;46.21;99905.50;5071709;28;19932;-75
2023/09/06 12:09:34;;;;;;;;;;;;;;;27.47;45.31;99906.63;5071831;28;19912;-77
2023/09/06 12:11:59;;;;;;;;;;;;;;;27.84;45.19;99897.22;5071976;28;19912;-77
2023/09/06 12:14:26;;;;;;;;;;;;;;;28.09;44.34;99896.19;5071679;28;20926;-78
2023/09/06 12:16:51;;;;;;;;;;;;;;;28.22;44.16;99887.38;5071734;28;19912;-77
2023/09/06 12:19:17;;;;;;;;;;;;;;;28.25;43.90;99897.72;5053754;28;19912;-77
2023/09/06 12:21:42;;;;;;;;;;;;;;;28.29;43.45;99898.78;5053738;28;19916;-76
2023/09/06 12:24:08;;;;;;;;;;;;;;;28.36;44.22;99891.09;5071592;28;19968;-78
2023/09/06 12:26:33;;;;;;;;;;;;;;;28.43;43.40;99886.13;5071720;28;19995;-77
2023/09/06 12:28:58;;;;;;;;;;;;;;;28.52;43.07;99883.59;5071714;28;19982;-77
2023/09/06 12:31:24;;;;;;;;;;;;;;;28.63;42.99;99881.56;5071900;28;20282;-77
2023/09/06 12:33:51;;;;;;;;;;;;;;;28.64;43.05;99886.72;5071793;28;19912;-77
2023/09/06 12:36:17;;;;;;;;;;;;;;;28.73;43.50;99886.91;5071887;28;19952;-76
2023/09/06 12:38:42;;;;;;;;;;;;;;;28.77;42.73;99885.22;5074321;28;19924;-76
2023/09/06 12:41:07;;;;;;;;;;;;;;;28.83;43.72;99886.78;5065602;28;19920;-77